Latest Weather Observations for Ballarat

IDV60801

Issued at 5:32 pm EST Monday 27 June 2016 (issued every 30 minutes, with the page automatically refreshed every 10 minutes)

About weather observations | Map of weather stations | Latest weather observations for VIC | Other Formats
Station Details ID: 089002 Name: BALLARAT AERODROME Lat: -37.51 Lon: 143.79 Height: 435.2 m
Data from the previous 72 hours. | See also: Recent months at Ballarat
Date/Time
EST
Temp
°C
App
Temp
°C
Dew
Point
°C
Rel
Hum
%
Delta-T
°C
Wind Press
QNH
hPa
Press
MSL
hPa
Rain since
9am
mm
Dir  Spd
km/h
Gust
km/h
Spd
kts
Gust
kts
27/05:30pm 5.8 3.1 5.7 99 0.0 W 9 11 5 6 1018.9 1019.6 0.4
27/05:00pm 6.6 4.1 6.5 99 0.0 W 9 13 5 7 1018.7 1019.4 0.4
27/04:51pm 7.0 4.2 6.9 99 0.0 W 11 15 6 8 1018.6 1019.3 0.4
27/04:30pm 7.7 5.5 7.7 100 0.0 W 9 13 5 7 1018.3 1018.9 0.4
27/04:09pm 7.4 4.3 7.3 99 0.0 WNW 13 15 7 8 1018.2 1018.8 0.4
27/04:04pm 7.7 4.7 7.7 100 0.0 WNW 13 15 7 8 1018.0 1018.7 0.4
27/04:03pm 7.9 4.9 7.9 100 0.0 WNW 13 17 7 9 1018.0 1018.7 0.4
27/04:00pm 8.0 5.1 8.0 100 0.0 WNW 13 17 7 9 1018.0 1018.7 0.4
27/03:52pm 7.7 3.9 7.7 100 0.0 W 17 22 9 12 1017.9 1018.6 0.4
27/03:30pm 7.7 3.5 7.6 99 0.0 W 19 24 10 13 1017.8 1018.5 0.4
27/03:00pm 7.9 3.8 7.9 100 0.0 W 19 24 10 13 1017.6 1018.3 0.4
27/02:30pm 7.8 4.4 7.8 100 0.0 WNW 15 20 8 11 1017.4 1018.1 0.4
27/02:19pm 7.8 4.1 7.8 100 0.0 WNW 17 20 9 11 1017.4 1018.1 0.4
27/02:00pm 7.5 4.5 7.5 100 0.0 WNW 13 19 7 10 1017.3 1018.0 0.4
27/01:30pm 6.7 3.5 6.7 100 0.0 N 13 15 7 8 1017.4 1018.1 0.4
27/01:22pm 6.8 3.6 6.8 100 0.0 N 13 17 7 9 1017.4 1018.1 0.2
27/01:00pm 6.5 3.2 6.5 100 0.0 N 13 19 7 10 1017.4 1018.1 0.2
27/12:51pm 6.3 3.0 6.3 100 0.0 N 13 17 7 9 1017.4 1018.1 0.2
27/12:30pm 6.2 2.5 6.2 100 0.0 N 15 19 8 10 1017.5 1018.2 0.2
27/12:21pm 6.0 1.9 6.0 100 0.0 N 17 20 9 11 1017.6 1018.3 0.0
27/12:00pm 6.1 2.0 6.0 99 0.0 N 17 22 9 12 1017.7 1018.4 0.0
27/11:51am 6.1 2.0 6.0 99 0.0 N 17 20 9 11 1017.8 1018.5 0.0
27/11:30am 6.0 1.8 5.9 99 0.0 N 17 20 9 11 1017.8 1018.5 0.0
27/11:00am 5.5 1.2 5.4 99 0.0 N 17 22 9 12 1017.8 1018.5 0.0
27/10:30am 5.4 0.5 5.3 99 0.0 N 20 24 11 13 1017.8 1018.5 0.0
27/10:00am 4.6 -0.2 4.5 99 0.0 N 19 24 10 13 1017.5 1018.2 0.0
27/09:30am 4.3 -0.6 4.2 99 0.0 N 19 22 10 12 1017.4 1018.1 0.0
27/09:00am 3.9 -0.7 3.9 100 0.0 NNE 17 22 9 12 1017.3 1018.0 0.2
27/08:30am 3.7 -0.1 3.7 100 0.0 N 13 19 7 10 1017.2 1017.9 0.2
27/08:00am 3.3 -0.6 3.3 100 0.0 NNE 13 15 7 8 1017.0 1017.7 0.2
27/07:30am 3.3 -1.0 3.3 100 0.0 NNE 15 19 8 10 1016.6 1017.3 0.2
27/07:00am 3.3 -1.4 3.3 100 0.0 NNE 17 22 9 12 1016.4 1017.1 0.2
27/06:30am 3.2 -1.5 3.2 100 0.0 N 17 22 9 12 1016.3 1016.9 0.2
27/06:00am 3.3 -1.9 3.3 100 0.0 N 20 26 11 14 1016.1 1016.7 0.2
27/05:30am 3.3 -1.9 3.3 100 0.0 NNE 20 24 11 13 1015.9 1016.5 0.2
27/05:00am 3.2 -1.9 3.1 99 0.0 N 19 22 10 12 1015.5 1016.2 0.2
27/04:30am 3.5 -1.2 3.4 99 0.0 NNE 17 22 9 12 1015.3 1016.0 0.2
27/04:00am 3.5 -1.5 3.5 100 0.0 NNE 19 24 10 13 1015.4 1016.1 0.2
27/03:30am 3.4 -1.8 3.4 100 0.0 N 20 26 11 14 1015.8 1016.4 0.2
27/03:00am 3.4 -1.6 3.4 100 0.0 N 19 24 10 13 1015.8 1016.4 0.2
27/02:30am 3.5 -1.7 3.4 99 0.0 N 20 24 11 13 1015.8 1016.4 0.2
27/02:18am 3.5 -1.7 3.4 99 0.0 NNE 20 26 11 14 1015.7 1016.3 0.2
27/02:00am 3.5 -1.2 3.4 99 0.0 NNE 17 22 9 12 1015.8 1016.4 0.2
27/01:50am 3.5 -1.2 3.4 99 0.0 NNE 17 22 9 12 1015.8 1016.4 0.2
27/01:30am 3.5 -1.5 3.4 99 0.0 NNE 19 24 10 13 1015.8 1016.4 0.2
27/01:00am 3.1 -2.0 3.1 100 0.0 NNE 19 22 10 12 1015.7 1016.3 0.0
27/12:30am 2.7 -2.7 2.7 100 0.0 N 20 26 11 14 1015.8 1016.4 0.0
27/12:00am 2.8 -2.4 2.7 99 0.0 N 19 22 10 12 1015.8 1016.4 0.0
 
Date/Time
EST
Temp
°C
App
Temp
°C
Dew
Point
°C
Rel
Hum
%
Delta-T
°C
Wind Press
QNH
hPa
Press
MSL
hPa
Rain since
9am
mm
Dir  Spd
km/h
Gust
km/h
Spd
kts
Gust
kts
26/11:30pm 3.0 -2.1 2.9 99 0.0 NNE 19 24 10 13 1015.9 1016.5 0.0
26/11:00pm 2.9 -1.8 2.9 100 0.0 NNE 17 24 9 13 1016.0 1016.6 0.0
26/10:30pm 3.0 -2.1 3.0 100 0.0 N 19 22 10 12 1015.9 1016.5 0.0
26/10:00pm 3.4 -1.8 3.3 99 0.0 N 20 28 11 15 1015.9 1016.5 0.0
26/09:30pm 3.5 -1.5 3.5 100 0.0 NNE 19 24 10 13 1016.2 1016.8 0.0
26/09:00pm 3.5 -2.1 3.4 99 0.0 NNE 22 28 12 15 1016.1 1016.7 0.0
26/08:30pm 3.4 -2.2 3.3 99 0.0 N 22 26 12 14 1016.1 1016.7 0.0
26/08:00pm 3.7 -2.3 3.6 99 0.0 N 24 28 13 15 1016.3 1016.9 0.0
26/07:30pm 4.2 -0.9 4.1 99 0.0 N 20 26 11 14 1016.3 1016.9 0.0
26/07:00pm 4.1 -1.1 3.8 98 0.1 N 20 26 11 14 1016.1 1016.7 0.0
26/06:30pm 4.6 -0.3 4.3 98 0.1 N 19 24 10 13 1016.2 1016.8 0.0
26/06:00pm 4.7 -0.1 4.4 98 0.1 N 19 22 10 12 1016.1 1016.7 0.0
26/05:30pm 4.7 -0.7 4.4 98 0.1 N 22 26 12 14 1015.9 1016.5 0.0
26/05:00pm 5.0 0.0 4.7 98 0.1 N 20 24 11 13 1015.9 1016.5 0.0
26/04:30pm 5.1 0.1 4.8 98 0.1 N 20 24 11 13 1015.9 1016.5 0.0
26/04:00pm 5.4 0.7 5.0 97 0.2 N 19 24 10 13 1016.1 1016.7 0.0
26/03:30pm 5.4 -0.1 4.1 91 0.6 N 22 30 12 16 1016.1 1016.7 0.0
26/03:00pm 5.4 -0.1 3.9 90 0.6 N 22 30 12 16 1016.3 1016.9 0.0
26/02:30pm 5.6 -0.4 3.4 86 0.9 N 24 30 13 16 1016.4 1017.1 0.0
26/02:00pm 6.5 -0.2 3.7 82 1.2 N 28 37 15 20 1016.7 1017.4 0.0
26/01:30pm 5.2 -2.4 3.1 86 0.9 N 32 39 17 21 1017.1 1017.8 0.0
26/01:00pm 5.1 -1.5 4.4 95 0.3 N 28 35 15 19 1017.5 1018.2 0.0
26/12:30pm 4.6 -2.0 4.3 98 0.1 N 28 32 15 17 1017.8 1018.5 0.0
26/12:00pm 4.2 -1.7 4.1 99 0.0 N 24 30 13 16 1018.2 1018.8 0.0
26/11:30am 3.8 -1.7 3.8 100 0.0 N 22 30 12 16 1018.3 1018.9 0.0
26/11:00am 3.5 -2.1 3.5 100 0.0 N 22 28 12 15 1018.4 1019.1 0.0
26/10:50am 3.3 -1.9 3.3 100 0.0 N 20 26 11 14 1018.6 1019.3 0.0
26/10:30am 2.9 -2.2 2.9 100 0.0 N 19 24 10 13 1018.7 1019.4 0.0
26/10:16am 2.3 -2.9 2.3 100 0.0 N 19 24 10 13 1019.0 1019.7 0.0
26/10:00am 1.9 -3.4 1.9 100 0.0 N 19 20 10 11 1019.1 1019.8 0.0
26/09:30am 1.3 -4.1 1.3 100 0.0 N 19 24 10 13 1019.3 1020.0 0.0
26/09:00am 0.9 -3.8 0.9 100 0.0 N 15 19 8 10 1019.6 1020.3 0.2
26/08:35am 1.0 -3.3 1.0 100 0.0 N 13 17 7 9 1019.7 1020.4 0.0
26/08:30am 0.9 -3.4 0.9 100 0.0 N 13 17 7 9 1019.7 1020.4 0.0
26/08:25am 0.8 -3.5 0.8 100 0.0 N 13 15 7 8 1019.7 1020.4 0.0
26/08:13am 0.1 -4.0 0.1 100 0.0 N 11 15 6 8 1019.7 1020.4 0.0
26/08:00am -0.9 -5.5 -0.9 100 0.0 N 13 15 7 8 1019.7 1020.4 0.0
26/07:53am -0.9 -5.1 -0.9 100 0.0 N 11 15 6 8 1019.7 1020.4 0.0
26/07:30am -0.9 -5.1 -0.9 100 0.0 NNE 11 13 6 7 1019.8 1020.5 0.0
26/07:27am -1.2 -5.4 -1.2 100 0.0 NNE 11 13 6 7 1019.8 1020.5 0.0
26/07:19am -1.2 -5.1 -1.2 100 0.0 NNE 9 11 5 6 1019.7 1020.4 0.0
26/07:00am -1.4 -5.3 -1.4 100 0.0 N 9 11 5 6 1019.6 1020.3 0.0
26/06:37am -1.4 -6.0 -1.4 100 0.0 NNE 13 13 7 7 1019.7 1020.4 0.0
26/06:30am -1.0 -5.2 -1.0 100 0.0 NNE 11 13 6 7 1019.7 1020.4 0.0
26/06:06am -0.6 -4.8 -0.6 100 0.0 NNE 11 11 6 6 1019.4 1020.1 0.0
26/06:04am -0.5 -4.6 -0.5 100 0.0 NNE 11 13 6 7 1019.4 1020.1 0.0
26/06:00am -0.5 -4.6 -0.5 100 0.0 NNE 11 13 6 7 1019.3 1020.0 0.0
26/05:32am -1.6 -5.1 -1.6 100 0.0 N 7 9 4 5 1019.5 1020.2 0.0
26/05:30am -1.5 -4.8 -1.5 100 0.0 N 6 9 3 5 1019.5 1020.2 0.0
26/05:00am -1.1 -4.4 -1.1 100 0.0 N 6 6 3 3 1019.7 1020.4 0.0
26/04:30am -1.1 -3.2 -1.1 100 0.0 CALM 0 0 0 0 1019.7 1020.4 0.0
26/04:17am -1.2 -3.4 -1.2 100 0.0 CALM 0 0 0 0 1019.7 1020.4 0.0
26/04:00am -0.6 -2.7 -0.6 100 0.0 CALM 0 0 0 0 1019.5 1020.2 0.0
26/03:30am 0.1 -3.0 0.1 100 0.0 ENE 6 7 3 4 1019.3 1020.0 0.0
26/03:00am -0.3 -4.0 -0.3 100 0.0 NE 9 9 5 5 1019.6 1020.3 0.0
26/02:30am -0.4 -3.6 -0.4 100 0.0 NE 6 7 3 4 1020.2 1021.0 0.0
26/02:00am 0.0 -3.7 0.0 100 0.0 NE 9 11 5 6 1020.6 1021.3 0.0
26/01:42am 0.5 -2.7 0.5 100 0.0 NE 7 9 4 5 1020.4 1021.2 0.0
26/01:30am 0.8 -2.2 0.8 100 0.0 NE 6 7 3 4 1020.4 1021.2 0.0
26/01:00am 0.0 -3.7 0.0 100 0.0 NE 9 11 5 6 1020.6 1021.3 0.0
26/12:30am -0.2 -3.9 -0.2 100 0.0 NE 9 9 5 5 1020.8 1021.5 0.0
26/12:26am 0.0 -3.7 0.0 100 0.0 NE 9 9 5 5 1020.9 1021.6 0.0
26/12:00am -0.1 -3.4 -0.1 100 0.0 NE 7 9 4 5 1021.2 1021.9 0.0
 
Date/Time
EST
Temp
°C
App
Temp
°C
Dew
Point
°C
Rel
Hum
%
Delta-T
°C
Wind Press
QNH
hPa
Press
MSL
hPa
Rain since
9am
mm
Dir  Spd
km/h
Gust
km/h
Spd
kts
Gust
kts
25/11:30pm 0.4 -2.9 0.4 100 0.0 NE 7 9 4 5 1021.6 1022.3 0.0
25/11:22pm 0.3 -3.0 0.3 100 0.0 NE 7 7 4 4 1021.6 1022.3 0.0
25/11:17pm -0.3 -3.7 -0.3 100 0.0 NE 7 7 4 4 1021.7 1022.4 0.0
25/11:00pm -0.3 -3.5 -0.3 100 0.0 ENE 6 7 3 4 1021.5 1022.2 0.0
25/10:53pm -0.4 -3.6 -0.4 100 0.0 E 6 6 3 3 1021.5 1022.2 0.0
25/10:49pm -0.4 -3.6 -0.4 100 0.0 E 6 7 3 4 1021.5 1022.2 0.0
25/10:30pm -0.5 -3.9 -0.5 100 0.0 E 7 7 4 4 1021.4 1022.1 0.0
25/10:00pm 0.1 -3.0 0.1 100 0.0 ENE 6 7 3 4 1021.8 1022.5 0.0
25/09:30pm 0.0 -3.3 0.0 100 0.0 ENE 7 9 4 5 1021.8 1022.5 0.0
25/09:00pm 1.0 -0.8 1.0 100 0.0 CALM 0 0 0 0 1021.9 1022.6 0.0
25/08:53pm 1.2 -0.6 1.2 100 0.0 CALM 0 0 0 0 1021.9 1022.6 0.0
25/08:37pm 0.5 -1.4 0.4 99 0.0 CALM 0 0 0 0 1021.9 1022.6 0.0
25/08:30pm 0.8 -1.1 0.7 99 0.0 CALM 0 0 0 0 1021.9 1022.6 0.0
25/08:18pm 0.7 -1.2 0.6 99 0.0 CALM 0 0 0 0 1021.9 1022.6 0.0
25/08:00pm 2.2 0.5 2.1 99 0.0 CALM 0 0 0 0 1022.1 1022.8 0.0
25/07:30pm 2.9 1.4 2.8 99 0.0 CALM 0 2 0 1 1022.1 1022.8 0.0
25/07:00pm 2.8 0.9 2.7 99 0.0 N 2 7 1 4 1022.1 1022.8 0.0
25/06:30pm 3.2 1.7 2.9 98 0.1 CALM 0 0 0 0 1022.1 1022.8 0.0
25/06:00pm 4.7 3.5 4.4 98 0.1 CALM 0 0 0 0 1022.0 1022.7 0.0
25/05:30pm 5.7 4.5 4.8 94 0.4 CALM 0 0 0 0 1021.9 1022.6 0.0
25/05:00pm 6.6 5.5 5.1 90 0.7 CALM 0 0 0 0 1021.8 1022.5 0.0
25/04:30pm 7.6 5.2 4.4 80 1.4 W 6 7 3 4 1021.8 1022.5 0.0
25/04:01pm 8.1 5.7 4.1 76 1.8 W 6 9 3 5 1021.8 1022.5 0.0
25/04:00pm 8.1 5.6 3.8 74 1.9 W 6 7 3 4 1021.8 1022.5 0.0
25/03:30pm 7.9 5.5 4.3 78 1.6 WNW 6 9 3 5 1021.9 1022.6 0.0
25/03:00pm 7.9 5.6 4.7 80 1.4 W 6 9 3 5 1021.8 1022.5 0.0
25/02:58pm 7.9 5.6 4.7 80 1.4 W 6 9 3 5 1021.8 1022.5 0.0
25/02:30pm 8.0 5.3 5.5 84 1.2 W 9 11 5 6 1021.8 1022.5 0.0
25/02:00pm 7.5 4.6 4.6 82 1.3 WSW 9 15 5 8 1022.1 1022.8 0.0
25/01:30pm 7.3 4.6 5.6 89 0.8 NNW 9 11 5 6 1022.3 1023.1 0.0
25/01:00pm 7.5 5.2 5.5 87 0.9 W 7 9 4 5 1022.5 1023.3 0.0
25/12:32pm 7.7 5.3 5.3 85 1.1 W 7 11 4 6 1022.6 1023.4 0.0
25/12:30pm 8.0 5.8 6.0 87 0.9 W 7 9 4 5 1022.6 1023.4 0.0
25/12:00pm 6.7 4.5 6.0 95 0.3 SW 7 11 4 6 1023.0 1023.7 0.0
25/11:55am 6.7 4.7 6.4 98 0.1 SW 6 11 3 6 1023.0 1023.7 0.0
25/11:37am 6.5 3.5 6.2 98 0.1 WSW 11 17 6 9 1023.0 1023.7 0.0
25/11:30am 6.3 2.9 6.0 98 0.1 WSW 13 19 7 10 1023.1 1023.8 0.0
25/11:00am 5.5 2.0 5.4 99 0.0 W 13 17 7 9 1023.2 1023.9 0.0
25/10:30am 4.2 1.2 4.2 100 0.0 WNW 9 13 5 7 1023.2 1023.9 0.0
25/10:14am 3.7 1.2 3.7 100 0.0 NW 6 9 3 5 1023.1 1023.8 0.0
25/10:00am 2.7 0.0 2.7 100 0.0 NNW 6 9 3 5 1023.0 1023.7 0.0
25/09:45am 2.3 -0.5 2.3 100 0.0 NW 6 7 3 4 1022.7 1023.5 0.0
25/09:35am 2.0 -0.8 2.0 100 0.0 WNW 6 7 3 4 1022.6 1023.4 0.0
25/09:30am 2.0 -0.8 2.0 100 0.0 W 6 7 3 4 1022.5 1023.3 0.0
25/09:13am 1.7 0.0 1.7 100 0.0 CALM 0 0 0 0 1022.4 1023.2 0.0
25/09:00am 1.4 -0.4 1.4 100 0.0 CALM 0 0 0 0 1022.2 1023.0 6.0
25/08:46am 0.8 -2.2 0.8 100 0.0 NE 6 9 3 5 1022.0 1022.7 6.0
25/08:30am 0.3 -2.8 0.3 100 0.0 WNW 6 9 3 5 1022.0 1022.7 6.0
25/08:00am 0.0 -2.4 0.0 100 0.0 SW 2 7 1 4 1021.7 1022.4 6.0
25/07:30am 0.1 -1.9 0.1 100 0.0 CALM 0 4 0 2 1021.4 1022.1 6.0
25/07:00am 0.8 -2.4 0.8 100 0.0 SW 7 9 4 5 1021.0 1021.7 6.0
25/06:30am 0.5 -2.7 0.5 100 0.0 SW 7 11 4 6 1020.9 1021.6 6.0
25/06:16am -0.1 -3.4 -0.1 100 0.0 WSW 7 9 4 5 1020.8 1021.5 6.0
25/06:00am -1.1 -3.6 -1.1 100 0.0 W 2 7 1 4 1020.7 1021.4 6.0
25/05:30am -1.5 -3.7 -1.5 100 0.0 CALM 0 0 0 0 1020.2 1021.0 6.0
25/05:21am -1.3 -3.5 -1.3 100 0.0 CALM 0 0 0 0 1020.2 1021.0 6.0
25/05:00am -0.9 -3.0 -0.9 100 0.0 CALM 0 0 0 0 1020.0 1020.7 6.0
25/04:30am -0.2 -2.2 -0.2 100 0.0 CALM 0 0 0 0 1020.0 1020.7 6.0
25/04:00am -0.2 -2.6 -0.2 100 0.0 S 2 7 1 4 1019.8 1020.5 6.0
25/03:30am 0.7 -1.2 0.7 100 0.0 CALM 0 4 0 2 1019.6 1020.3 6.0
25/03:00am 1.0 -2.5 1.0 100 0.0 WSW 9 13 5 7 1019.6 1020.3 6.0
25/02:30am 1.0 -3.3 1.0 100 0.0 WSW 13 17 7 9 1019.4 1020.1 6.0
25/02:00am 0.8 -3.5 0.8 100 0.0 W 13 17 7 9 1019.1 1019.8 6.0
25/01:30am 0.5 -2.7 0.5 100 0.0 WSW 7 9 4 5 1018.8 1019.5 6.0
25/01:00am 0.7 -3.3 0.7 100 0.0 WSW 11 13 6 7 1018.5 1019.2 6.0
25/12:30am 0.8 -3.2 0.8 100 0.0 W 11 15 6 8 1018.4 1019.1 6.0
25/12:00am 1.3 -3.0 1.2 99 0.0 WSW 13 19 7 10 1018.3 1018.9 6.0
 
Date/Time
EST
Temp
°C
App
Temp
°C
Dew
Point
°C
Rel
Hum
%
Delta-T
°C
Wind Press
QNH
hPa
Press
MSL
hPa
Rain since
9am
mm
Dir  Spd
km/h
Gust
km/h
Spd
kts
Gust
kts
24/11:56pm 1.4 -2.8 1.4 100 0.0 WSW 13 19 7 10 1018.2 1018.8 6.0
24/11:45pm 1.5 -2.7 1.5 100 0.0 WSW 13 17 7 9 1018.2 1018.8 6.0
24/11:30pm 1.3 -3.0 1.2 99 0.0 W 13 17 7 9 1018.0 1018.7 5.8
24/11:00pm 1.2 -3.1 1.1 99 0.0 WSW 13 17 7 9 1017.5 1018.2 5.8
24/10:30pm 1.2 -3.5 1.1 99 0.0 W 15 20 8 11 1017.2 1017.9 5.8
24/10:00pm 1.3 -3.7 1.2 99 0.0 W 17 22 9 12 1017.1 1017.8 5.8
24/09:30pm 1.5 -3.1 1.4 99 0.0 WSW 15 20 8 11 1016.7 1017.4 5.8
24/09:00pm 1.4 -3.2 1.3 99 0.0 WSW 15 17 8 9 1016.3 1016.9 5.8
24/08:30pm 1.9 -2.7 1.8 99 0.0 WSW 15 22 8 12 1015.9 1016.5 5.8
24/08:00pm 1.8 -2.8 1.7 99 0.0 WSW 15 20 8 11 1015.1 1015.8 5.8
24/07:30pm 2.3 -2.6 2.2 99 0.0 WSW 17 24 9 13 1014.6 1015.3 5.8
24/07:00pm 2.2 -2.7 2.1 99 0.0 WSW 17 20 9 11 1014.0 1014.6 5.8
24/06:30pm 2.1 -1.3 2.0 99 0.0 SSW 9 15 5 8 1013.6 1014.2 5.8
24/06:00pm 1.5 -2.4 1.4 99 0.0 WNW 11 13 6 7 1012.8 1013.5 5.8
24/05:39pm 1.9 -1.5 1.8 99 0.0 WSW 9 15 5 8 1012.4 1013.0 5.8

Other Formats:

Comma delimited format used in spreadsheet applications
http://www.bom.gov.au/fwo/IDV60801/IDV60801.94852.axf

JavaScript Object Notation format (JSON) in row-major order
http://www.bom.gov.au/fwo/IDV60801/IDV60801.94852.json